createdAt,value
2023-02-22T00:01:36.076Z,16.40
2023-02-22T00:04:05.717Z,8.55
2023-02-22T00:06:33.347Z,11.95
2023-02-22T00:09:02.549Z,12.55
2023-02-22T00:11:31.785Z,11.38
2023-02-22T00:13:58.850Z,12.82
2023-02-22T00:16:27.260Z,10.32
2023-02-22T00:18:54.536Z,8.88
2023-02-22T00:21:22.393Z,7.80
2023-02-22T00:23:49.985Z,7.72
2023-02-22T00:26:20.887Z,7.93
2023-02-22T00:28:50.758Z,4.53
2023-02-22T00:31:18.907Z,5.00
2023-02-22T00:33:46.584Z,7.50
2023-02-22T00:36:15.866Z,6.70
2023-02-22T00:38:43.037Z,8.82
2023-02-22T00:41:12.288Z,6.15
2023-02-22T00:43:39.284Z,8.77
2023-02-22T00:46:07.474Z,7.70
2023-02-22T00:48:34.794Z,7.18
2023-02-22T00:51:01.778Z,9.45
2023-02-22T00:53:30.905Z,5.95
2023-02-22T00:55:57.887Z,6.85
2023-02-22T00:58:26.733Z,6.97
2023-02-22T01:00:53.842Z,7.82
2023-02-22T01:03:21.434Z,6.95
2023-02-22T01:05:49.078Z,7.15
2023-02-22T01:08:17.647Z,7.93
2023-02-22T01:10:45.239Z,6.93
2023-02-22T01:13:13.141Z,8.63
2023-02-22T01:15:42.397Z,8.25
2023-02-22T01:18:10.241Z,10.80
2023-02-22T01:20:37.503Z,12.10
2023-02-22T01:23:07.131Z,10.70
2023-02-22T01:25:35.106Z,12.90
2023-02-22T01:28:03.454Z,24.38
2023-02-22T01:30:33.475Z,30.88
2023-02-22T01:33:02.409Z,30.48
2023-02-22T01:35:32.187Z,27.67
2023-02-22T01:37:59.213Z,25.77
2023-02-22T01:40:32.689Z,24.88
2023-02-22T01:43:02.504Z,26.30
2023-02-22T01:45:53.264Z,23.55
2023-02-22T01:48:42.298Z,21.05
2023-02-22T01:51:20.142Z,20.85
2023-02-22T01:54:07.755Z,23.92
2023-02-22T01:56:38.705Z,23.85
2023-02-22T01:59:09.848Z,25.08
2023-02-22T02:01:38.929Z,29.60
2023-02-22T02:04:10.350Z,35.70
2023-02-22T02:06:38.840Z,36.47
2023-02-22T02:09:34.818Z,36.13
2023-02-22T02:12:04.719Z,30.75
2023-02-22T02:14:32.764Z,32.17
2023-02-22T02:17:02.163Z,44.85
2023-02-22T02:20:00.379Z,64.97
2023-02-22T02:23:07.098Z,51.38
2023-02-22T02:26:13.808Z,44.08
2023-02-22T02:29:10.300Z,32.20
2023-02-22T02:32:17.169Z,27.60
2023-02-22T02:34:56.715Z,27.02
2023-02-22T02:38:06.508Z,23.33
2023-02-22T02:40:59.261Z,22.52
2023-02-22T02:43:43.369Z,21.88
2023-02-22T02:46:19.401Z,22.83
2023-02-22T02:48:54.841Z,19.15
2023-02-22T02:51:24.736Z,19.25
2023-02-22T02:53:53.082Z,19.92
2023-02-22T02:56:20.553Z,21.17
2023-02-22T02:58:50.338Z,18.40
2023-02-22T03:01:39.268Z,19.48
2023-02-22T03:04:30.042Z,12.95
2023-02-22T03:07:22.457Z,14.25
2023-02-22T03:10:29.180Z,13.90
2023-02-22T03:13:36.395Z,19.77
2023-02-22T03:16:43.745Z,15.98
2023-02-22T03:19:36.630Z,16.70
2023-02-22T03:22:26.700Z,12.82
2023-02-22T03:25:08.972Z,15.55
2023-02-22T03:27:47.584Z,13.70
2023-02-22T03:30:24.170Z,15.88
2023-02-22T03:32:56.809Z,17.83
2023-02-22T03:35:28.443Z,16.42
2023-02-22T03:37:58.382Z,11.98
2023-02-22T03:40:33.321Z,12.68
2023-02-22T03:43:07.392Z,11.93
2023-02-22T03:45:35.937Z,11.10
2023-02-22T03:48:10.418Z,11.80
2023-02-22T03:50:38.916Z,13.10
2023-02-22T03:53:07.537Z,11.30
2023-02-22T03:55:35.066Z,11.60
2023-02-22T03:58:10.459Z,13.55
2023-02-22T04:03:04.586Z,14.77
2023-02-22T04:05:31.715Z,12.15
2023-02-22T04:07:59.177Z,10.65
2023-02-22T04:10:26.214Z,12.35
2023-02-22T04:12:56.141Z,10.30
2023-02-22T04:15:24.865Z,10.90
2023-02-22T04:17:52.882Z,7.43
2023-02-22T04:20:20.209Z,11.07
2023-02-22T04:22:47.642Z,9.70
2023-02-22T04:25:23.009Z,7.80
2023-02-22T04:30:19.242Z,8.57
2023-02-22T04:32:46.439Z,8.18
2023-02-22T04:35:13.476Z,9.68
2023-02-22T04:37:40.448Z,11.57
2023-02-22T04:40:08.440Z,9.45
2023-02-22T04:42:37.393Z,11.50
2023-02-22T04:45:06.570Z,9.65
2023-02-22T04:47:33.976Z,9.75
2023-02-22T04:50:01.017Z,9.88
2023-02-22T04:52:28.077Z,11.80
2023-02-22T04:54:56.695Z,10.05
2023-02-22T04:57:23.906Z,8.20
2023-02-22T04:59:51.403Z,11.27
2023-02-22T05:02:19.775Z,11.90
2023-02-22T05:04:46.837Z,10.98
2023-02-22T05:07:13.917Z,10.48
2023-02-22T05:09:40.955Z,8.45
2023-02-22T05:12:08.202Z,8.02
2023-02-22T05:14:35.617Z,10.15
2023-02-22T05:17:03.326Z,9.88
2023-02-22T05:19:30.577Z,10.07
2023-02-22T05:21:59.864Z,8.90
2023-02-22T05:24:26.834Z,9.70
2023-02-22T05:26:56.827Z,9.95
2023-02-22T05:29:23.986Z,9.32
2023-02-22T05:31:51.100Z,8.90
2023-02-22T05:34:18.175Z,8.48
2023-02-22T05:36:46.661Z,11.18
2023-02-22T05:39:16.018Z,11.05
2023-02-22T05:41:43.164Z,11.05
2023-02-22T05:44:10.229Z,9.40
2023-02-22T05:46:37.207Z,12.32
2023-02-22T05:49:04.368Z,17.00
2023-02-22T05:51:33.928Z,20.75
2023-02-22T05:54:00.961Z,25.40
2023-02-22T05:56:30.370Z,21.05
2023-02-22T05:58:58.603Z,21.95
2023-02-22T06:01:26.057Z,21.48
2023-02-22T06:03:53.358Z,16.33
2023-02-22T06:06:22.334Z,15.25
2023-02-22T06:08:50.064Z,18.48
2023-02-22T06:11:17.408Z,20.58
2023-02-22T06:13:50.921Z,15.27
2023-02-22T06:16:18.122Z,19.25
2023-02-22T06:18:45.173Z,25.02
2023-02-22T06:21:12.149Z,31.77
2023-02-22T06:23:39.250Z,22.35
2023-02-22T06:26:06.480Z,19.50
2023-02-22T06:28:33.487Z,26.85
2023-02-22T06:31:00.539Z,34.22
2023-02-22T06:33:27.588Z,25.13
2023-02-22T06:35:54.556Z,18.90
2023-02-22T06:38:23.848Z,18.20
2023-02-22T06:40:51.181Z,31.00
2023-02-22T06:43:18.177Z,21.08
2023-02-22T06:45:45.204Z,15.20
2023-02-22T06:48:12.651Z,16.73
2023-02-22T06:50:41.140Z,18.10
2023-02-22T06:53:08.457Z,12.23
2023-02-22T06:55:36.482Z,12.75
2023-02-22T06:58:05.055Z,12.15
2023-02-22T07:00:32.547Z,13.05
2023-02-22T07:03:04.885Z,12.57
2023-02-22T07:05:35.151Z,13.00
2023-02-22T07:08:09.742Z,13.90
2023-02-22T07:10:40.560Z,12.35
2023-02-22T07:13:08.843Z,12.90
2023-02-22T07:15:36.694Z,14.73
2023-02-22T07:18:04.400Z,15.50
2023-02-22T07:20:33.646Z,11.25
2023-02-22T07:23:04.481Z,13.18
2023-02-22T07:25:31.609Z,12.63
2023-02-22T07:27:59.775Z,14.30
2023-02-22T07:30:34.033Z,13.45
2023-02-22T07:33:06.452Z,15.23
2023-02-22T07:35:39.979Z,12.95
2023-02-22T07:38:08.748Z,13.73
2023-02-22T07:40:38.688Z,12.83
2023-02-22T07:43:27.216Z,11.20
2023-02-22T07:45:57.460Z,11.73
2023-02-22T07:48:28.359Z,17.88
2023-02-22T07:50:56.405Z,11.07
2023-02-22T07:53:28.642Z,6.43
2023-02-22T07:55:57.852Z,7.70
2023-02-22T07:58:27.155Z,11.00
2023-02-22T08:00:54.578Z,9.00
2023-02-22T08:03:25.372Z,10.30
2023-02-22T08:05:55.440Z,12.80
2023-02-22T08:08:23.081Z,14.02
2023-02-22T08:10:53.791Z,9.53
2023-02-22T08:13:22.315Z,16.93
2023-02-22T08:15:52.078Z,8.68
2023-02-22T08:18:20.228Z,9.13
2023-02-22T08:20:49.212Z,7.00
2023-02-22T08:23:17.577Z,9.30
2023-02-22T08:25:44.973Z,8.07
2023-02-22T08:28:15.214Z,8.20
2023-02-22T08:30:43.859Z,10.03
2023-02-22T08:33:14.636Z,8.33
2023-02-22T08:35:42.565Z,8.43
2023-02-22T08:38:18.111Z,11.43
2023-02-22T08:40:45.083Z,6.33
2023-02-22T08:43:13.575Z,8.73
2023-02-22T08:45:41.020Z,8.23
2023-02-22T08:48:17.468Z,6.53
2023-02-22T08:50:44.621Z,10.17
2023-02-22T08:53:13.823Z,10.83
2023-02-22T08:55:42.174Z,9.77
2023-02-22T08:58:09.888Z,7.27
2023-02-22T09:00:39.240Z,5.47
2023-02-22T09:03:10.730Z,4.77
2023-02-22T09:05:38.159Z,11.17
2023-02-22T09:08:06.094Z,11.00
2023-02-22T09:10:34.518Z,10.83
2023-02-22T09:13:01.677Z,9.27
2023-02-22T09:15:30.099Z,11.60
2023-02-22T09:17:57.460Z,8.63
2023-02-22T09:20:25.246Z,5.47
2023-02-22T09:22:53.203Z,6.93
2023-02-22T09:25:21.554Z,6.90
2023-02-22T09:27:50.482Z,6.10
2023-02-22T09:30:39.153Z,7.83
2023-02-22T09:33:10.479Z,9.00
2023-02-22T09:35:42.445Z,8.80
2023-02-22T09:38:10.522Z,6.27
2023-02-22T09:40:45.305Z,6.00
2023-02-22T09:43:52.141Z,8.77
2023-02-22T09:46:42.168Z,5.80
2023-02-22T09:49:40.002Z,9.23
2023-02-22T09:52:35.183Z,44.20
2023-02-22T09:55:10.006Z,10.13
2023-02-22T09:57:42.725Z,17.20
2023-02-22T10:00:31.917Z,8.73
2023-02-22T10:03:28.896Z,11.27
2023-02-22T10:06:15.057Z,12.60
2023-02-22T10:08:43.517Z,13.17
2023-02-22T10:11:24.250Z,14.17
2023-02-22T10:14:02.414Z,17.90
2023-02-22T10:17:09.150Z,18.67
2023-02-22T10:20:15.883Z,16.97
2023-02-22T10:23:22.834Z,17.00
2023-02-22T10:25:57.462Z,18.60
2023-02-22T10:28:31.076Z,19.02
2023-02-22T10:31:04.495Z,19.27
2023-02-22T10:33:39.547Z,18.03
2023-02-22T10:36:15.215Z,17.33
2023-02-22T10:38:48.859Z,17.50
2023-02-22T10:41:30.989Z,15.43
2023-02-22T10:43:58.505Z,17.93
2023-02-22T10:46:28.808Z,14.93
2023-02-22T10:49:02.697Z,8.93
2023-02-22T10:51:30.679Z,7.40
2023-02-22T10:54:20.055Z,9.47
2023-02-22T10:56:50.960Z,7.20
2023-02-22T10:59:39.325Z,5.07
2023-02-22T11:02:20.939Z,4.85
2023-02-22T11:05:09.500Z,5.38
2023-02-22T11:07:37.316Z,9.18
2023-02-22T11:10:09.500Z,6.53
2023-02-22T11:12:39.941Z,5.67
2023-02-22T11:15:28.520Z,6.03
2023-02-22T11:18:01.429Z,7.70
2023-02-22T11:20:34.962Z,8.90
2023-02-22T11:23:04.828Z,9.57
2023-02-22T11:25:36.146Z,6.03
2023-02-22T11:28:33.160Z,9.47
2023-02-22T11:31:12.533Z,6.50
2023-02-22T11:33:40.244Z,8.33
2023-02-22T11:36:09.505Z,10.63
2023-02-22T11:38:39.496Z,10.10
2023-02-22T11:41:28.376Z,9.83
2023-02-22T11:44:11.730Z,15.00
2023-02-22T11:46:41.672Z,9.53
2023-02-22T11:49:11.579Z,12.53
2023-02-22T11:52:18.352Z,10.23
2023-02-22T11:55:32.770Z,10.00
2023-02-22T11:58:30.174Z,8.10
2023-02-22T12:01:08.357Z,7.20
2023-02-22T12:04:07.087Z,5.73
2023-02-22T12:07:15.598Z,9.73
2023-02-22T12:10:15.562Z,4.73
2023-02-22T12:12:58.619Z,5.30
2023-02-22T12:15:49.598Z,4.53
2023-02-22T12:19:07.127Z,7.27
2023-02-22T12:21:40.806Z,7.13
2023-02-22T12:24:16.609Z,6.80
2023-02-22T12:26:50.565Z,5.03
2023-02-22T12:29:48.227Z,5.50
2023-02-22T12:32:41.800Z,4.67
2023-02-22T12:35:19.221Z,6.07
2023-02-22T12:38:10.201Z,6.53
2023-02-22T12:41:05.449Z,6.23
2023-02-22T12:43:45.543Z,7.50
2023-02-22T12:46:53.474Z,5.73
2023-02-22T12:49:46.004Z,6.97
2023-02-22T12:52:28.162Z,4.10
2023-02-22T12:55:11.277Z,5.80
2023-02-22T12:57:57.266Z,5.13
2023-02-22T13:00:49.724Z,7.20
2023-02-22T13:03:38.375Z,6.40
2023-02-22T13:06:46.405Z,7.77
2023-02-22T13:09:53.162Z,6.63
2023-02-22T13:12:53.520Z,6.60
2023-02-22T13:16:00.314Z,5.83
2023-02-22T13:18:41.938Z,5.80
2023-02-22T13:21:39.445Z,6.53
2023-02-22T13:24:19.331Z,4.63
2023-02-22T13:27:12.015Z,7.23
2023-02-22T13:29:42.635Z,5.43
2023-02-22T13:32:51.519Z,5.30
2023-02-22T13:35:48.720Z,6.47
2023-02-22T13:38:55.478Z,6.13
2023-02-22T13:41:48.487Z,6.67
2023-02-22T13:44:44.066Z,6.90
2023-02-22T13:47:40.915Z,5.55
2023-02-22T13:50:47.629Z,5.37
2023-02-22T13:55:52.062Z,7.57
2023-02-22T13:58:19.145Z,4.80
2023-02-22T14:01:06.012Z,5.63
2023-02-22T14:04:12.724Z,6.67
2023-02-22T14:09:10.124Z,5.93
2023-02-22T14:11:43.224Z,6.90
2023-02-22T14:14:11.200Z,6.93
2023-02-22T14:16:38.864Z,7.47
2023-02-22T14:19:16.729Z,5.60
2023-02-22T14:22:02.451Z,5.57
2023-02-22T14:27:10.868Z,5.90
2023-02-22T14:29:38.504Z,5.43
2023-02-22T14:32:10.796Z,6.10
2023-02-22T14:34:53.987Z,7.73
2023-02-22T14:37:28.091Z,8.23
2023-02-22T14:40:34.820Z,11.73
2023-02-22T14:43:12.908Z,8.10
2023-02-22T14:45:49.735Z,10.23
2023-02-22T14:48:43.029Z,14.73
2023-02-22T14:51:34.466Z,12.17
2023-02-22T14:54:28.690Z,11.88
2023-02-22T14:57:29.656Z,11.30
2023-02-22T15:00:20.637Z,10.43
2023-02-22T15:02:50.292Z,10.13
2023-02-22T15:05:19.861Z,9.07
2023-02-22T15:07:57.040Z,11.85
2023-02-22T15:10:29.473Z,10.60
2023-02-22T15:13:19.455Z,9.80
2023-02-22T15:15:49.680Z,8.57
2023-02-22T15:18:46.415Z,10.47
2023-02-22T15:21:17.344Z,13.80
2023-02-22T15:24:06.687Z,14.23
2023-02-22T15:26:44.251Z,18.63
2023-02-22T15:29:20.505Z,10.43
2023-02-22T15:31:48.744Z,5.65
2023-02-22T15:34:35.729Z,8.00
2023-02-22T15:37:25.823Z,13.70
2023-02-22T15:39:59.526Z,7.97
2023-02-22T15:42:29.759Z,7.83
2023-02-22T15:44:58.217Z,8.00
2023-02-22T15:47:29.405Z,7.73
2023-02-22T15:50:36.301Z,7.75
2023-02-22T15:53:25.847Z,8.77
2023-02-22T15:56:03.835Z,8.87
2023-02-22T15:58:34.137Z,9.05
2023-02-22T16:01:09.132Z,9.17
2023-02-22T16:03:48.753Z,9.35
2023-02-22T16:06:54.221Z,7.53
2023-02-22T16:09:26.178Z,9.00
2023-02-22T16:12:11.148Z,10.63
2023-02-22T16:14:59.082Z,12.55
2023-02-22T16:17:56.059Z,9.77
2023-02-22T16:20:57.493Z,7.60
2023-02-22T16:26:33.439Z,9.85
2023-02-22T16:29:02.754Z,8.15
2023-02-22T16:31:33.995Z,6.78
2023-02-22T16:34:02.783Z,7.32
2023-02-22T16:36:51.694Z,7.30
2023-02-22T16:39:29.175Z,7.85
2023-02-22T16:41:58.582Z,12.43
2023-02-22T16:44:26.955Z,11.07
2023-02-22T16:46:56.674Z,13.50
2023-02-22T16:49:24.384Z,24.50
2023-02-22T16:51:55.400Z,40.15
2023-02-22T16:54:34.459Z,22.65
2023-02-22T16:57:08.515Z,20.90
2023-02-22T16:59:39.769Z,15.93
2023-02-22T17:02:07.784Z,17.92
2023-02-22T17:04:37.650Z,20.23
2023-02-22T17:07:05.511Z,19.50
2023-02-22T17:09:33.152Z,15.13
2023-02-22T17:12:01.544Z,12.30
2023-02-22T17:14:34.136Z,12.38
2023-02-22T17:17:01.396Z,12.77
2023-02-22T17:19:28.642Z,14.55
2023-02-22T17:21:55.844Z,22.92
2023-02-22T17:24:29.495Z,23.05
2023-02-22T17:26:59.331Z,21.30
2023-02-22T17:29:28.017Z,14.45
2023-02-22T17:31:55.561Z,16.33
2023-02-22T17:34:22.773Z,19.58
2023-02-22T17:36:49.923Z,18.15
2023-02-22T17:39:17.030Z,17.33
2023-02-22T17:41:44.228Z,21.45
2023-02-22T17:44:12.012Z,22.27
2023-02-22T17:46:40.885Z,71.72
2023-02-22T17:49:08.266Z,31.88
2023-02-22T17:51:35.384Z,31.48
2023-02-22T17:54:02.454Z,40.22
2023-02-22T17:56:29.502Z,42.42
2023-02-22T17:58:57.763Z,44.45
2023-02-22T18:01:59.827Z,42.67
2023-02-22T18:04:26.940Z,37.05
2023-02-22T18:06:59.543Z,28.55
2023-02-22T18:09:39.496Z,23.42
2023-02-22T18:12:09.332Z,22.17
2023-02-22T18:14:38.574Z,19.30
2023-02-22T18:17:37.571Z,19.38
2023-02-22T18:20:12.682Z,25.67
2023-02-22T18:22:43.166Z,22.88
2023-02-22T18:25:11.631Z,27.75
2023-02-22T18:27:38.711Z,33.47
2023-02-22T18:30:08.661Z,30.83
2023-02-22T18:32:35.986Z,43.30
2023-02-22T18:35:05.452Z,42.13
2023-02-22T18:37:32.847Z,48.90
2023-02-22T18:40:01.816Z,33.97
2023-02-22T18:42:28.936Z,30.23
2023-02-22T18:45:00.876Z,21.45
2023-02-22T18:47:27.971Z,21.98
2023-02-22T18:49:54.981Z,16.65
2023-02-22T18:52:21.993Z,20.38
2023-02-22T18:54:50.030Z,14.45
2023-02-22T18:57:17.124Z,13.95
2023-02-22T18:59:44.464Z,15.18
2023-02-22T19:02:16.620Z,18.77
2023-02-22T19:04:44.390Z,13.55
2023-02-22T19:07:17.933Z,15.23
2023-02-22T19:09:45.400Z,16.80
2023-02-22T19:12:21.982Z,15.75
2023-02-22T19:14:49.055Z,15.57
2023-02-22T19:17:17.710Z,14.25
2023-02-22T19:19:44.911Z,15.35
2023-02-22T19:22:17.406Z,13.50
2023-02-22T19:24:45.678Z,15.93
2023-02-22T19:27:13.839Z,15.13
2023-02-22T19:29:49.406Z,15.48
2023-02-22T19:32:17.608Z,22.70
2023-02-22T19:34:47.210Z,25.55
2023-02-22T19:37:26.334Z,27.92
2023-02-22T19:39:54.798Z,97.13
2023-02-22T19:42:28.798Z,30.48
2023-02-22T19:44:59.748Z,18.92
2023-02-22T19:47:28.686Z,23.48
2023-02-22T19:50:01.794Z,22.70
2023-02-22T19:52:43.356Z,23.02
2023-02-22T19:55:15.521Z,25.45
2023-02-22T19:57:47.308Z,25.38
2023-02-22T20:00:27.494Z,24.65
2023-02-22T20:03:16.821Z,19.38
2023-02-22T20:05:58.593Z,18.95
2023-02-22T20:08:39.135Z,15.93
2023-02-22T20:11:10.154Z,20.83
2023-02-22T20:13:38.875Z,20.92
2023-02-22T20:16:07.380Z,24.05
2023-02-22T20:19:08.056Z,21.35
2023-02-22T20:21:38.375Z,21.50
2023-02-22T20:24:09.112Z,17.15
2023-02-22T20:26:38.107Z,16.75
2023-02-22T20:29:09.156Z,23.20
2023-02-22T20:31:37.361Z,21.23
2023-02-22T20:34:06.438Z,21.42
2023-02-22T20:36:35.695Z,26.17
2023-02-22T20:39:08.534Z,30.25
2023-02-22T20:41:36.300Z,32.05
2023-02-22T20:44:07.107Z,41.65
2023-02-22T20:46:41.478Z,36.53
2023-02-22T20:49:17.526Z,27.35
2023-02-22T20:51:45.922Z,21.35
2023-02-22T20:54:17.356Z,31.17
2023-02-22T20:56:46.219Z,19.50
2023-02-22T21:02:14.703Z,20.98
2023-02-22T21:04:42.026Z,20.33
2023-02-22T21:07:19.095Z,21.38
2023-02-22T21:09:46.179Z,17.88
2023-02-22T21:12:13.977Z,18.15
2023-02-22T21:14:44.376Z,21.60
2023-02-22T21:17:11.465Z,16.38
2023-02-22T21:19:38.512Z,14.20
2023-02-22T21:22:08.252Z,13.35
2023-02-22T21:24:36.691Z,12.25
2023-02-22T21:27:03.916Z,12.82
2023-02-22T21:29:34.538Z,12.73
2023-02-22T21:32:02.596Z,17.83
2023-02-22T21:34:30.007Z,17.00
2023-02-22T21:36:57.219Z,14.13
2023-02-22T21:39:28.524Z,17.95
2023-02-22T21:42:00.285Z,18.60
2023-02-22T21:44:35.113Z,17.42
2023-02-22T21:47:02.131Z,15.32
2023-02-22T21:49:29.323Z,15.65
2023-02-22T21:51:56.637Z,14.32
2023-02-22T21:54:30.606Z,16.58
2023-02-22T21:56:59.806Z,17.58
2023-02-22T21:59:26.840Z,16.67
2023-02-22T22:01:58.136Z,18.58
2023-02-22T22:04:31.682Z,14.07
2023-02-22T22:07:01.734Z,17.05
2023-02-22T22:09:33.162Z,19.77
2023-02-22T22:12:05.216Z,15.88
2023-02-22T22:14:34.233Z,16.05
2023-02-22T22:17:01.703Z,17.45
2023-02-22T22:19:30.757Z,16.45
2023-02-22T22:21:58.236Z,18.63
2023-02-22T22:24:27.218Z,14.27
2023-02-22T22:26:55.001Z,21.02
2023-02-22T22:29:24.539Z,19.42
2023-02-22T22:31:52.153Z,20.60
2023-02-22T22:34:19.700Z,16.98
2023-02-22T22:36:47.602Z,18.52
2023-02-22T22:39:14.606Z,24.10
2023-02-22T22:41:44.482Z,21.45
2023-02-22T22:44:13.172Z,17.83
2023-02-22T22:46:40.381Z,21.48
2023-02-22T22:49:10.044Z,21.08
2023-02-22T22:51:41.082Z,19.73
2023-02-22T22:54:09.767Z,24.00
2023-02-22T22:56:39.339Z,25.98
2023-02-22T22:59:08.307Z,22.23
2023-02-22T23:01:41.000Z,22.05
2023-02-22T23:04:11.690Z,23.90
2023-02-22T23:06:41.945Z,24.90
2023-02-22T23:09:37.720Z,24.70
2023-02-22T23:12:09.340Z,22.98
2023-02-22T23:14:40.280Z,23.75
2023-02-22T23:17:14.247Z,23.75
2023-02-22T23:19:42.604Z,28.05
2023-02-22T23:22:09.798Z,26.33
2023-02-22T23:24:37.438Z,23.67
2023-02-22T23:27:09.958Z,25.10
2023-02-22T23:29:39.635Z,25.77
2023-02-22T23:32:07.817Z,25.55
2023-02-22T23:34:40.805Z,24.25
2023-02-22T23:37:10.950Z,24.80
2023-02-22T23:39:38.533Z,25.38
2023-02-22T23:42:08.779Z,30.23
2023-02-22T23:44:36.066Z,28.38
2023-02-22T23:47:03.947Z,25.73
2023-02-22T23:49:36.085Z,26.98
2023-02-22T23:52:04.290Z,23.92
2023-02-22T23:54:36.449Z,25.35
2023-02-22T23:57:04.627Z,26.77
2023-02-22T23:59:33.259Z,26.65
